WZZ29B EPGD-EPKT
Flight info
| Callsign | WZZ29B |
|---|---|
| Flight time | N/A |
| Altitude | 35000 |
| Route | IRLUN N133 PENEX/N0366F270 N133 VIDEV T359 OVBOR N133 NEGUV M66 KUKAM |
| Aircraft | A20N/M-SDE2E3FGHIRWXY/LB1 |
Departure
| Time | 2026-04-27 19:44 |
|---|---|
| Airport | Gdańsk Lech Wałęsa Airport (EPGD) |
Arrival
| Time | N/A |
|---|---|
| Airport | Katowice Wojciech Korfanty International Airport (EPKT) |
| Time | Latitude | Longitude | Altitude | Speed | Heading |
|---|---|---|---|---|---|
| 2026-04-27 19:30 | 54.38102 | 18.46241 | 459 ft | 0 kts | 23° |
| 2026-04-27 19:37 | 54.38103 | 18.46241 | 459 ft | 0 kts | 23° |
| 2026-04-27 19:38 | 54.38106 | 18.46244 | 459 ft | 2 kts | 23° |
| 2026-04-27 19:39 | 54.38135 | 18.46285 | 459 ft | 9 kts | 69° |
| 2026-04-27 19:39 | 54.38116 | 18.46431 | 459 ft | 16 kts | 111° |
| 2026-04-27 19:39 | 54.38057 | 18.46612 | 459 ft | 16 kts | 151° |
| 2026-04-27 19:39 | 54.37977 | 18.46578 | 459 ft | 12 kts | 191° |
| 2026-04-27 19:40 | 54.37931 | 18.46644 | 459 ft | 9 kts | 109° |
| 2026-04-27 19:40 | 54.37900 | 18.46785 | 457 ft | 17 kts | 114° |
| 2026-04-27 19:40 | 54.37840 | 18.47018 | 458 ft | 25 kts | 113° |
| 2026-04-27 19:40 | 54.37761 | 18.47324 | 458 ft | 30 kts | 114° |
| 2026-04-27 19:41 | 54.37680 | 18.47659 | 465 ft | 30 kts | 112° |
| 2026-04-27 19:41 | 54.37599 | 18.47982 | 469 ft | 29 kts | 114° |
| 2026-04-27 19:41 | 54.37523 | 18.48289 | 475 ft | 27 kts | 112° |
| 2026-04-27 19:41 | 54.37454 | 18.48572 | 485 ft | 25 kts | 115° |
| 2026-04-27 19:42 | 54.37388 | 18.48835 | 486 ft | 24 kts | 112° |
| 2026-04-27 19:42 | 54.37325 | 18.49096 | 486 ft | 22 kts | 112° |
| 2026-04-27 19:42 | 54.37244 | 18.49267 | 494 ft | 17 kts | 178° |
| 2026-04-27 19:42 | 54.37160 | 18.49142 | 488 ft | 17 kts | 254° |
| 2026-04-27 19:43 | 54.37189 | 18.48917 | 485 ft | 31 kts | 292° |
| 2026-04-27 19:43 | 54.37375 | 18.48195 | 474 ft | 100 kts | 291° |
| 2026-04-27 19:43 | 54.37719 | 18.46793 | 471 ft | 150 kts | 295° |
| 2026-04-27 19:43 | 54.38148 | 18.45035 | 768 ft | 167 kts | 295° |
| 2026-04-27 19:44 | 54.38603 | 18.43115 | 1193 ft | 185 kts | 294° |
| 2026-04-27 19:44 | 54.39094 | 18.40965 | 1634 ft | 203 kts | 294° |
| 2026-04-27 19:44 | 54.39644 | 18.38626 | 2115 ft | 217 kts | 297° |
| 2026-04-27 19:44 | 54.40261 | 18.36224 | 2778 ft | 221 kts | 298° |
| 2026-04-27 19:45 | 54.40885 | 18.33803 | 3579 ft | 223 kts | 298° |
| 2026-04-27 19:45 | 54.41418 | 18.31273 | 4282 ft | 239 kts | 283° |
| 2026-04-27 19:45 | 54.41243 | 18.28276 | 4916 ft | 269 kts | 253° |
| 2026-04-27 19:45 | 54.40151 | 18.25571 | 5936 ft | 283 kts | 223° |
| 2026-04-27 19:46 | 54.38415 | 18.23952 | 7035 ft | 290 kts | 196° |
| 2026-04-27 19:46 | 54.36383 | 18.23772 | 8011 ft | 297 kts | 169° |
| 2026-04-27 19:46 | 54.34491 | 18.25092 | 8939 ft | 302 kts | 143° |
| 2026-04-27 19:46 | 54.32810 | 18.27353 | 9879 ft | 309 kts | 139° |
| 2026-04-27 19:47 | 54.31038 | 18.29524 | 10711 ft | 320 kts | 147° |
| 2026-04-27 19:47 | 54.29017 | 18.31386 | 11111 ft | 344 kts | 155° |
| 2026-04-27 19:47 | 54.26717 | 18.32985 | 11517 ft | 365 kts | 160° |
| 2026-04-27 19:47 | 54.24274 | 18.34415 | 12300 ft | 372 kts | 162° |
| 2026-04-27 19:48 | 54.21789 | 18.35785 | 13136 ft | 379 kts | 163° |
| 2026-04-27 19:48 | 54.19271 | 18.37157 | 13960 ft | 386 kts | 163° |
| 2026-04-27 19:48 | 54.16692 | 18.38570 | 14711 ft | 391 kts | 163° |
| 2026-04-27 19:48 | 54.14086 | 18.40006 | 15525 ft | 395 kts | 163° |
| 2026-04-27 19:49 | 54.11445 | 18.41467 | 16303 ft | 399 kts | 163° |
| 2026-04-27 19:49 | 54.08811 | 18.42927 | 17053 ft | 404 kts | 163° |
| 2026-04-27 19:49 | 54.06114 | 18.44421 | 17822 ft | 408 kts | 163° |
| 2026-04-27 19:49 | 54.03430 | 18.45907 | 18552 ft | 413 kts | 163° |
| 2026-04-27 19:50 | 54.00679 | 18.47427 | 19223 ft | 416 kts | 163° |
| 2026-04-27 19:50 | 53.97904 | 18.48961 | 19892 ft | 420 kts | 163° |
| 2026-04-27 19:50 | 53.95133 | 18.50490 | 20544 ft | 423 kts | 163° |
| 2026-04-27 19:50 | 53.92314 | 18.52044 | 21185 ft | 427 kts | 164° |
| 2026-04-27 19:51 | 53.89473 | 18.53607 | 21831 ft | 430 kts | 164° |
| 2026-04-27 19:51 | 53.86611 | 18.55180 | 22473 ft | 434 kts | 164° |
| 2026-04-27 19:51 | 53.83757 | 18.56746 | 23095 ft | 438 kts | 164° |
| 2026-04-27 19:51 | 53.80833 | 18.58349 | 23722 ft | 441 kts | 165° |
| 2026-04-27 19:52 | 53.77883 | 18.59963 | 24268 ft | 445 kts | 165° |
| 2026-04-27 19:52 | 53.74963 | 18.61599 | 24805 ft | 448 kts | 161° |
| 2026-04-27 19:52 | 53.72063 | 18.63654 | 25333 ft | 452 kts | 159° |
| 2026-04-27 19:52 | 53.69155 | 18.65783 | 25830 ft | 455 kts | 159° |
| 2026-04-27 19:53 | 53.63323 | 18.70039 | 26799 ft | 461 kts | 159° |
| 2026-04-27 19:53 | 53.60361 | 18.72189 | 27257 ft | 464 kts | 159° |
| 2026-04-27 19:53 | 53.57372 | 18.74354 | 27705 ft | 468 kts | 159° |
| 2026-04-27 19:54 | 53.54400 | 18.76501 | 28146 ft | 470 kts | 159° |
| 2026-04-27 19:54 | 53.51349 | 18.78568 | 28575 ft | 472 kts | 164° |
| 2026-04-27 19:54 | 53.48228 | 18.80229 | 28964 ft | 474 kts | 166° |
| 2026-04-27 19:54 | 53.45059 | 18.81892 | 29364 ft | 477 kts | 166° |
| 2026-04-27 19:55 | 53.41866 | 18.83569 | 29745 ft | 480 kts | 166° |
| 2026-04-27 19:55 | 53.38700 | 18.85232 | 30124 ft | 483 kts | 166° |
| 2026-04-27 19:55 | 53.35479 | 18.86926 | 30463 ft | 487 kts | 166° |
| 2026-04-27 19:55 | 53.32225 | 18.88634 | 30804 ft | 489 kts | 166° |
| 2026-04-27 19:56 | 53.28998 | 18.90326 | 31128 ft | 491 kts | 166° |
| 2026-04-27 19:56 | 53.25716 | 18.92044 | 31471 ft | 493 kts | 166° |
| 2026-04-27 19:56 | 53.22444 | 18.93755 | 31884 ft | 494 kts | 166° |
| 2026-04-27 19:56 | 53.19157 | 18.95471 | 32329 ft | 493 kts | 166° |
| 2026-04-27 19:57 | 53.15870 | 18.97184 | 32758 ft | 492 kts | 166° |
| 2026-04-27 19:57 | 53.12632 | 18.98867 | 33165 ft | 492 kts | 167° |
| 2026-04-27 19:57 | 53.09354 | 19.00568 | 33579 ft | 492 kts | 167° |
| 2026-04-27 19:57 | 53.06080 | 19.02264 | 33989 ft | 491 kts | 167° |
| 2026-04-27 19:58 | 53.02844 | 19.03938 | 34365 ft | 491 kts | 167° |
| 2026-04-27 19:58 | 52.99581 | 19.05623 | 34698 ft | 490 kts | 167° |
| 2026-04-27 19:58 | 52.96329 | 19.07299 | 35033 ft | 489 kts | 167° |
| 2026-04-27 19:58 | 52.93071 | 19.08976 | 35163 ft | 488 kts | 167° |
| 2026-04-27 19:59 | 52.86615 | 19.12292 | 35269 ft | 488 kts | 167° |
| 2026-04-27 19:59 | 52.80113 | 19.15621 | 35268 ft | 488 kts | 167° |
| 2026-04-27 20:00 | 52.73639 | 19.18926 | 35262 ft | 488 kts | 167° |
| 2026-04-27 20:00 | 52.67127 | 19.22241 | 35264 ft | 489 kts | 167° |
| 2026-04-27 20:01 | 52.60539 | 19.25578 | 35254 ft | 501 kts | 167° |
| 2026-04-27 20:01 | 52.53911 | 19.28934 | 35254 ft | 500 kts | 167° |
| 2026-04-27 20:02 | 52.47235 | 19.32301 | 35253 ft | 500 kts | 167° |
| 2026-04-27 20:02 | 52.40607 | 19.35632 | 35250 ft | 501 kts | 167° |
| 2026-04-27 20:03 | 52.33957 | 19.38963 | 35253 ft | 501 kts | 167° |